Thursday, June 29, 2017, 10:16 AM EDT
Back to Local

KMPO, Mt Pocono Pocono Mountains

Location: Pocono Summit, PA, United States Lat: 41.133
Local Time: 10:16 AM EDT (14:16 GMT) Lon: -75.383
Time Zone: US/Eastern Elev: 1915 ft

Show me the last for .
Show Coded

Time T Td Feel RH Dir Speed Gust Alt SLP Vis Weather Sky Remarks
2017-06-29 09:53 68 56 - 65 230° 10 - 30.15 30.13 10 CLR None
2017-06-29 08:53 65 54 - 67 240° 8 - 30.16 30.14 10 CLR None
2017-06-29 07:53 62 54 - 74 210° 7 - 30.17 30.15 10 CLR 6-hr Min Temp (8am): 57.9°F
6-hr Max Temp (8am): 62.1°F
2017-06-29 06:53 61 53 - 75 230° 5 - 30.17 30.15 10 CLR None
2017-06-29 05:53 61 52 - 72 230° 9 - 30.17 30.15 10 CLR None
2017-06-29 04:53 62 52 - 69 250° 6 - 30.17 30.14 10 CLR None
2017-06-29 03:53 60 51 - 72 230° 6 - 30.17 30.15 10 CLR None
2017-06-29 02:53 59 49 - 69 320° 5 - 30.17 30.15 10 CLR None
2017-06-29 01:53 60 49 - 66 250° 9 - 30.16 30.14 10 CLR 6-hr Min Temp (2am): 57.9°F
6-hr Max Temp (2am): 66.0°F
2017-06-29 00:53 59 49 - 69 260° 6 - 30.16 30.14 10 CLR 24-hr Min Temp (1am): 45.0°F
24-hr Max Temp (1am): 70.0°F
2017-06-28 23:53 61 48 - 62 230° 8 - 30.15 30.13 10 CLR None
2017-06-28 22:53 61 50 - 67 260° 5 - 30.15 30.14 10 CLR None
2017-06-28 21:53 62 51 - 67 - Calm - 30.15 30.13 10 CLR None
2017-06-28 20:53 63 50 - 62 240° 6 - 30.13 30.12 10 CLR None
2017-06-28 19:53 66 50 - 56 260° 5 - 30.14 30.13 10 FEW060 6-hr Min Temp (8pm): 66.0°F
6-hr Max Temp (8pm): 70.0°F
2017-06-28 18:53 69 49 - 48 270° 8 - 30.14 30.13 10 FEW055 None
2017-06-28 17:53 69 49 - 48 280° 9 - 30.13 30.13 10 CLR None
2017-06-28 16:53 69 49 - 48 280° 14 - 30.15 30.14 10 FEW060 None
2017-06-28 15:53 69 48 - 47 270° 8 17 30.15 30.14 10 SCT055 None
2017-06-28 14:53 69 49 - 48 320° 10 - 30.16 30.15 10 SCT050 None
2017-06-28 13:53 66 47 - 50 300° 12 21 30.17 30.16 10 FEW047 BKN060 BKN080 6-hr Min Temp (2pm): 53.1°F
6-hr Max Temp (2pm): 68.0°F
2017-06-28 12:53 64 47 - 53 280° 17 23 30.19 30.18 10 BKN050 BKN060 None
2017-06-28 11:53 65 47 - 52 280° 15 - 30.17 30.16 10 BKN050 None
2017-06-28 10:53 64 46 - 51 310° 13 22 30.15 30.15 10 SCT048 None

Support USWX by starting your Amazon purchase here.